TimeCST,TemperatureF,Dew PointF,Humidity,Sea Level PressureIn,VisibilityMPH,Wind Direction,Wind SpeedMPH,Gust SpeedMPH,PrecipitationIn,Events,Conditions,WindDirDegrees,DateUTC
12:55 AM,37.0,30.0,76,30.29,10.0,SSE,10.4,-,N/A,,Clear,160,2012-11-17 06:55:00
1:55 AM,45.0,30.0,56,30.26,10.0,South,17.3,24.2,N/A,,Clear,170,2012-11-17 07:55:00
2:55 AM,46.0,30.0,54,30.25,10.0,South,21.9,-,N/A,,Clear,180,2012-11-17 08:55:00
3:55 AM,44.1,30.0,58,30.24,10.0,South,20.7,26.5,N/A,,Clear,180,2012-11-17 09:55:00
4:55 AM,43.0,30.0,60,30.24,10.0,South,20.7,-,N/A,,Clear,170,2012-11-17 10:55:00
5:55 AM,42.1,30.0,62,30.25,10.0,South,20.7,-,N/A,,Clear,180,2012-11-17 11:55:00
6:55 AM,41.0,30.0,65,30.24,10.0,South,17.3,25.3,N/A,,Clear,180,2012-11-17 12:55:00
7:55 AM,42.1,30.9,65,30.24,10.0,South,16.1,-,N/A,,Clear,170,2012-11-17 13:55:00
8:55 AM,46.0,30.9,56,30.25,10.0,South,19.6,26.5,N/A,,Clear,180,2012-11-17 14:55:00
9:55 AM,52.0,30.9,45,30.23,10.0,South,23.0,36.8,N/A,,Clear,180,2012-11-17 15:55:00
10:55 AM,57.0,32.0,39,30.23,10.0,South,24.2,33.4,N/A,,Clear,170,2012-11-17 16:55:00
11:55 AM,60.1,33.1,36,30.18,10.0,South,24.2,33.4,N/A,,Clear,180,2012-11-17 17:55:00
12:55 PM,62.1,34.0,35,30.16,10.0,South,24.2,35.7,N/A,,Clear,180,2012-11-17 18:55:00
1:55 PM,63.0,34.0,34,30.13,10.0,South,27.6,38.0,N/A,,Clear,170,2012-11-17 19:55:00
2:55 PM,62.1,35.1,37,30.13,10.0,South,26.5,34.5,N/A,,Clear,170,2012-11-17 20:55:00
3:55 PM,60.1,35.1,39,30.14,10.0,SSE,23.0,28.8,N/A,,Clear,160,2012-11-17 21:55:00
4:55 PM,57.0,34.0,42,30.15,10.0,SSE,13.8,-,N/A,,Clear,160,2012-11-17 22:55:00
5:55 PM,54.0,33.1,45,30.15,10.0,SSE,16.1,24.2,N/A,,Clear,160,2012-11-17 23:55:00
6:55 PM,51.1,33.1,50,30.16,10.0,SSE,16.1,-,N/A,,Clear,160,2012-11-18 00:55:00
7:55 PM,51.1,32.0,48,30.16,10.0,South,19.6,26.5,N/A,,Clear,170,2012-11-18 01:55:00
8:55 PM,50.0,30.9,48,30.15,10.0,South,19.6,26.5,N/A,,Clear,170,2012-11-18 02:55:00
9:55 PM,48.9,28.0,44,30.15,10.0,South,20.7,26.5,N/A,,Clear,170,2012-11-18 03:55:00
10:55 PM,46.9,28.0,48,30.13,10.0,South,21.9,28.8,N/A,,Clear,180,2012-11-18 04:55:00
11:55 PM,48.0,28.0,46,30.13,10.0,South,20.7,29.9,N/A,,Clear,180,2012-11-18 05:55:00